createdAt,value
2017-05-16T00:00:17.964Z,69.6
2017-05-16T00:01:20.178Z,69.3
2017-05-16T00:02:23.412Z,69.4
2017-05-16T00:03:25.762Z,69.5
2017-05-16T00:04:28.866Z,69.6
2017-05-16T00:05:31.211Z,69.3
2017-05-16T00:06:34.061Z,69.3
2017-05-16T00:07:36.919Z,69.4
2017-05-16T00:08:39.642Z,69.3
2017-05-16T00:09:42.796Z,69.3
2017-05-16T00:11:47.552Z,69.2
2017-05-16T00:12:50.397Z,69.3
2017-05-16T00:13:53.294Z,69.3
2017-05-16T00:14:56.448Z,69.4
2017-05-16T00:15:58.793Z,69.4
2017-05-16T00:17:01.144Z,69.7
2017-05-16T00:18:04.001Z,69.6
2017-05-16T00:19:06.848Z,69.7
2017-05-16T00:20:09.865Z,69.6
2017-05-16T00:21:12.215Z,69.5
2017-05-16T00:22:15.067Z,69.6
2017-05-16T00:23:17.916Z,69.5
2017-05-16T00:24:20.495Z,69.5
2017-05-16T00:25:23.660Z,69.5
2017-05-16T00:26:26.003Z,69.4
2017-05-16T00:27:28.345Z,69.8
2017-05-16T00:28:31.195Z,69.9
2017-05-16T00:29:34.045Z,70.1
2017-05-16T00:30:37.249Z,70.2
2017-05-16T00:31:39.646Z,70.2
2017-05-16T00:32:41.994Z,70.2
2017-05-16T00:33:44.841Z,70.3
2017-05-16T00:35:50.398Z,70.3
2017-05-16T00:36:53.252Z,70.4
2017-05-16T00:37:55.602Z,70.4
2017-05-16T00:38:58.456Z,70.4
2017-05-16T00:40:01.307Z,70.5
2017-05-16T00:41:03.957Z,70.2
2017-05-16T00:42:06.805Z,70.4
2017-05-16T00:43:09.522Z,70.7
2017-05-16T00:44:12.250Z,70.7
2017-05-16T00:45:14.596Z,70.8
2017-05-16T00:46:17.744Z,71
2017-05-16T00:47:20.090Z,70.9
2017-05-16T00:48:22.805Z,70.9
2017-05-16T00:49:25.660Z,70.9
2017-05-16T00:50:28.507Z,71
2017-05-16T00:51:31.152Z,71.1
2017-05-16T00:52:34.021Z,71.3
2017-05-16T00:53:36.370Z,71.3
2017-05-16T00:54:39.215Z,71.4
2017-05-16T00:55:42.069Z,71.4
2017-05-16T00:56:45.219Z,71.4
2017-05-16T00:57:47.566Z,71.5
2017-05-16T00:58:49.916Z,71.4
2017-05-16T00:59:52.773Z,71.5
2017-05-16T01:00:55.620Z,71.4
2017-05-16T01:01:58.773Z,71.7
2017-05-16T01:03:01.115Z,71.7
2017-05-16T01:05:06.372Z,72
2017-05-16T01:06:09.218Z,72.2
2017-05-16T01:07:11.834Z,72
2017-05-16T01:08:14.688Z,72.3
2017-05-16T01:09:17.029Z,72.7
2017-05-16T01:10:19.884Z,72.6
2017-05-16T01:11:22.732Z,72.5
2017-05-16T01:12:25.709Z,72.6
2017-05-16T01:13:28.053Z,72.5
2017-05-16T01:14:30.907Z,72.6
2017-05-16T01:15:33.326Z,72.6
2017-05-16T01:16:36.180Z,72.7
2017-05-16T01:17:39.332Z,72.8
2017-05-16T01:18:41.550Z,72.6
2017-05-16T01:19:44.402Z,72.6
2017-05-16T01:20:47.254Z,72.5
2017-05-16T01:21:49.606Z,72.4
2017-05-16T01:22:52.708Z,72.3
2017-05-16T01:23:55.065Z,72.3
2017-05-16T01:24:57.780Z,72.4
2017-05-16T01:26:00.635Z,72.4
2017-05-16T01:27:03.524Z,72.3
2017-05-16T01:28:06.120Z,72.3
2017-05-16T01:29:08.972Z,72.4
2017-05-16T01:30:11.319Z,72.4
2017-05-16T01:31:14.038Z,72.4
2017-05-16T01:32:17.445Z,72.4
2017-05-16T01:33:20.093Z,72.5
2017-05-16T01:34:22.493Z,72.5
2017-05-16T01:35:24.840Z,72.9
2017-05-16T01:36:27.697Z,72.7
2017-05-16T01:37:30.546Z,72.7
2017-05-16T01:38:33.656Z,72.8
2017-05-16T01:39:35.731Z,73
2017-05-16T01:40:38.578Z,73
2017-05-16T01:41:41.425Z,73.1
2017-05-16T01:42:43.777Z,72.9
2017-05-16T01:43:46.876Z,73
2017-05-16T01:44:49.231Z,73.1
2017-05-16T01:45:52.076Z,73
2017-05-16T01:46:54.928Z,73
2017-05-16T01:47:57.781Z,73.2
2017-05-16T01:49:00.382Z,73.2
2017-05-16T01:50:02.593Z,73.3
2017-05-16T01:51:05.439Z,73.3
2017-05-16T01:52:08.286Z,73.5
2017-05-16T01:53:10.859Z,73.5
2017-05-16T01:54:13.972Z,73.6
2017-05-16T01:55:16.875Z,73.7
2017-05-16T01:56:19.218Z,73.8
2017-05-16T01:57:21.858Z,73.9
2017-05-16T01:58:24.574Z,73.9
2017-05-16T01:59:27.726Z,74.1
2017-05-16T02:00:30.074Z,74.1
2017-05-16T02:01:32.925Z,74.1
2017-05-16T02:02:35.327Z,74.1
2017-05-16T02:03:38.175Z,74
2017-05-16T02:04:41.148Z,74
2017-05-16T02:05:43.362Z,74.2
2017-05-16T02:06:46.214Z,74.3
2017-05-16T02:07:49.067Z,74.2
2017-05-16T02:08:51.448Z,74.2
2017-05-16T02:09:54.415Z,74.4
2017-05-16T02:11:59.549Z,74.7
2017-05-16T02:13:02.397Z,74.7
2017-05-16T02:14:05.245Z,74.7
2017-05-16T02:15:08.212Z,74.9
2017-05-16T02:16:10.555Z,74.8
2017-05-16T02:18:15.812Z,74.8
2017-05-16T02:19:18.713Z,74.7
2017-05-16T02:20:21.373Z,74.8
2017-05-16T02:21:23.958Z,74.8
2017-05-16T02:22:26.804Z,74.9
2017-05-16T02:23:29.661Z,74.9
2017-05-16T02:24:32.007Z,74.9
2017-05-16T02:25:35.109Z,75
2017-05-16T02:26:37.512Z,74.9
2017-05-16T02:28:42.634Z,74.9
2017-05-16T02:29:45.483Z,74.9
2017-05-16T02:30:48.582Z,75
2017-05-16T02:31:50.925Z,75
2017-05-16T02:32:53.769Z,75.1
2017-05-16T02:33:56.689Z,75.2
2017-05-16T02:34:59.035Z,75.4
2017-05-16T02:36:02.188Z,75.6
2017-05-16T02:37:04.400Z,75.8
2017-05-16T02:38:07.249Z,75.8
2017-05-16T02:39:10.093Z,75.8
2017-05-16T02:40:12.435Z,75.8
2017-05-16T02:41:15.400Z,76
2017-05-16T02:42:18.246Z,76.1
2017-05-16T02:43:20.593Z,76.1
2017-05-16T02:44:23.446Z,76.2
2017-05-16T02:45:26.294Z,76.2
2017-05-16T02:46:28.936Z,76.1
2017-05-16T02:47:31.279Z,76.1
2017-05-16T02:49:37.037Z,76.1
2017-05-16T02:50:39.383Z,76.1
2017-05-16T02:51:42.485Z,76.2
2017-05-16T02:52:44.826Z,76.2
2017-05-16T02:53:47.671Z,76.2
2017-05-16T02:54:50.515Z,76.3
2017-05-16T02:55:52.860Z,76.3
2017-05-16T02:56:55.959Z,76.4
2017-05-16T02:57:58.298Z,76.4
2017-05-16T02:59:01.141Z,76.2
2017-05-16T03:00:03.991Z,76.2
2017-05-16T03:01:06.335Z,76.2
2017-05-16T03:02:09.438Z,76.2
2017-05-16T03:03:11.775Z,76.2
2017-05-16T03:04:14.622Z,76.3
2017-05-16T03:05:17.464Z,76.3
2017-05-16T03:06:20.041Z,76.2
2017-05-16T03:07:23.151Z,76.2
2017-05-16T03:08:25.491Z,76.2
2017-05-16T03:09:27.836Z,76.2
2017-05-16T03:10:30.545Z,76.2
2017-05-16T03:11:33.256Z,76.3
2017-05-16T03:12:36.218Z,76.4
2017-05-16T03:13:39.058Z,76.5
2017-05-16T03:14:41.280Z,76.6
2017-05-16T03:15:44.135Z,76.8
2017-05-16T03:16:46.848Z,76.7
2017-05-16T03:17:50.043Z,76.8
2017-05-16T03:18:52.388Z,76.9
2017-05-16T03:20:57.636Z,76.7
2017-05-16T03:22:00.483Z,76.7
2017-05-16T03:23:03.183Z,76.8
2017-05-16T03:24:05.525Z,76.7
2017-05-16T03:25:08.369Z,76.9
2017-05-16T03:26:10.942Z,76.6
2017-05-16T03:27:13.834Z,76.5
2017-05-16T03:28:16.978Z,76.4
2017-05-16T03:29:19.321Z,76.3
2017-05-16T03:30:22.036Z,76.2
2017-05-16T03:31:24.379Z,76.2
2017-05-16T03:32:27.230Z,76.2
2017-05-16T03:33:30.379Z,76.2
2017-05-16T03:34:32.773Z,76.2
2017-05-16T03:35:35.170Z,76.1
2017-05-16T03:36:38.018Z,76.3
2017-05-16T03:37:40.865Z,76.4
2017-05-16T03:38:43.327Z,76.3
2017-05-16T03:39:46.183Z,76.3
2017-05-16T03:40:48.908Z,76.4
2017-05-16T03:41:51.259Z,76.5
2017-05-16T03:42:54.105Z,76.5
2017-05-16T03:43:57.204Z,76.6
2017-05-16T03:44:59.475Z,76.8
2017-05-16T03:46:02.330Z,76.7
2017-05-16T03:47:05.174Z,76.8
2017-05-16T03:48:07.512Z,76.9
2017-05-16T03:49:10.474Z,76.9
2017-05-16T03:50:12.818Z,76.9
2017-05-16T03:51:15.666Z,76.7
2017-05-16T03:52:18.506Z,76.9
2017-05-16T03:53:21.354Z,77
2017-05-16T03:54:24.001Z,77.1
2017-05-16T03:55:26.265Z,77.3
2017-05-16T03:56:29.110Z,77.4
2017-05-16T03:57:31.956Z,77.5
2017-05-16T03:58:34.802Z,77.5
2017-05-16T03:59:37.447Z,77.5
2017-05-16T04:00:39.789Z,77.6
2017-05-16T04:02:46.112Z,78
2017-05-16T04:03:47.951Z,78
2017-05-16T04:04:51.099Z,78
2017-05-16T04:05:53.444Z,78
2017-05-16T04:06:56.286Z,78.3
2017-05-16T04:07:58.685Z,78.4
2017-05-16T04:09:01.589Z,78.2
2017-05-16T04:10:04.185Z,78.2
2017-05-16T04:11:07.027Z,78.2
2017-05-16T04:12:09.370Z,78.2
2017-05-16T04:13:11.952Z,78
2017-05-16T04:14:15.169Z,78
2017-05-16T04:15:17.812Z,78.1
2017-05-16T04:16:20.148Z,78.1
2017-05-16T04:17:23.059Z,78.2
2017-05-16T04:18:25.907Z,78.3
2017-05-16T04:19:28.247Z,78.5
2017-05-16T04:20:31.321Z,78.1
2017-05-16T04:21:34.027Z,78
2017-05-16T04:22:36.365Z,77.8
2017-05-16T04:23:39.211Z,77.7
2017-05-16T04:24:42.056Z,77.5
2017-05-16T04:25:45.067Z,77.4
2017-05-16T04:26:47.409Z,77.3
2017-05-16T04:27:49.817Z,77.3
2017-05-16T04:28:52.737Z,77.5
2017-05-16T04:29:55.589Z,77.6
2017-05-16T04:30:58.240Z,77.4
2017-05-16T04:32:00.585Z,77.2
2017-05-16T04:33:03.432Z,77.3
2017-05-16T04:34:06.275Z,77.3
2017-05-16T04:35:08.484Z,76.9
2017-05-16T04:36:11.629Z,77
2017-05-16T04:37:14.478Z,76.8
2017-05-16T04:38:16.823Z,76.7
2017-05-16T04:39:19.664Z,76.5
2017-05-16T04:40:22.370Z,76.5
2017-05-16T04:41:25.515Z,76.5
2017-05-16T04:42:27.858Z,76.4
2017-05-16T04:43:31.265Z,76.5
2017-05-16T04:44:33.102Z,76.5
2017-05-16T04:45:35.812Z,76.5
2017-05-16T04:46:38.826Z,76.5
2017-05-16T04:47:41.403Z,76.5
2017-05-16T04:48:44.112Z,76.6
2017-05-16T04:49:46.455Z,76.6
2017-05-16T04:50:49.585Z,76.6
2017-05-16T04:51:52.230Z,76.5
2017-05-16T04:52:54.586Z,76.4
2017-05-16T04:53:57.432Z,76.4
2017-05-16T04:55:00.275Z,76.1
2017-05-16T04:56:02.688Z,76.1
2017-05-16T04:57:05.908Z,75.9
2017-05-16T04:58:08.120Z,75.9
2017-05-16T04:59:10.966Z,75.9
2017-05-16T05:00:13.808Z,75.8
2017-05-16T05:01:16.082Z,75.9
2017-05-16T05:02:19.591Z,76
2017-05-16T05:03:21.940Z,75.8
2017-05-16T05:04:24.786Z,75.8
2017-05-16T05:05:27.190Z,75.7
2017-05-16T05:06:30.034Z,75.6
2017-05-16T05:07:33.038Z,75.7
2017-05-16T05:08:35.249Z,75.6
2017-05-16T05:10:41.015Z,75.2
2017-05-16T05:11:43.357Z,75.1
2017-05-16T05:12:46.504Z,75.1
2017-05-16T05:13:48.849Z,74.9
2017-05-16T05:15:54.656Z,74.7
2017-05-16T05:16:57.578Z,74.7
2017-05-16T05:18:00.280Z,74.6
2017-05-16T05:19:02.625Z,74.5
2017-05-16T05:20:05.471Z,74.4
2017-05-16T05:21:07.823Z,74.1
2017-05-16T05:22:10.532Z,73.9
2017-05-16T05:23:13.610Z,73.4
2017-05-16T05:24:16.457Z,73.2
2017-05-16T05:25:18.803Z,72.9
2017-05-16T05:26:21.654Z,72.8
2017-05-16T05:27:24.496Z,72.2
2017-05-16T05:28:27.596Z,71.9
2017-05-16T05:29:29.850Z,71.6
2017-05-16T05:30:32.693Z,71.1
2017-05-16T05:31:35.540Z,70.8
2017-05-16T05:32:37.883Z,71
2017-05-16T05:33:40.844Z,70.4
2017-05-16T05:34:43.693Z,70.1
2017-05-16T05:35:46.542Z,69.3
2017-05-16T05:36:48.881Z,69.2
2017-05-16T05:37:51.728Z,68.8
2017-05-16T05:38:54.829Z,68.6
2017-05-16T05:39:57.167Z,68.5
2017-05-16T05:41:00.567Z,68.1
2017-05-16T05:42:02.911Z,67.2
2017-05-16T05:43:05.668Z,66.7
2017-05-16T05:44:08.886Z,66.7
2017-05-16T05:46:14.139Z,65.1
2017-05-16T05:47:16.913Z,64.7
2017-05-16T05:48:19.622Z,64
2017-05-16T05:49:22.721Z,63.4
2017-05-16T05:50:25.077Z,62.8
2017-05-16T05:51:27.922Z,62.3
2017-05-16T05:52:30.766Z,62.1
2017-05-16T05:53:33.614Z,61.6
2017-05-16T05:54:36.773Z,61.6
2017-05-16T05:55:39.614Z,60.7
2017-05-16T05:56:42.457Z,60.4
2017-05-16T05:57:45.303Z,60
2017-05-16T05:58:48.149Z,59.9
2017-05-16T05:59:51.295Z,59.6
2017-05-16T06:00:53.695Z,58.6
2017-05-16T06:01:56.545Z,57.8
2017-05-16T06:02:59.395Z,58
2017-05-16T06:04:02.240Z,57.8
2017-05-16T06:05:05.252Z,57.1
2017-05-16T06:06:07.960Z,57.5
2017-05-16T06:07:10.750Z,58.2
2017-05-16T06:08:13.594Z,57.8
2017-05-16T06:09:16.810Z,56.8
2017-05-16T06:10:19.479Z,57.3
2017-05-16T06:11:22.193Z,57.2
2017-05-16T06:12:25.103Z,57.3
2017-05-16T06:13:27.942Z,57.1
2017-05-16T06:14:30.833Z,56.5
2017-05-16T06:15:33.931Z,55.9
2017-05-16T06:16:36.505Z,56.2
2017-05-16T06:17:39.917Z,55.9
2017-05-16T06:18:42.265Z,55.3
2017-05-16T06:19:45.120Z,55.1
2017-05-16T06:20:49.337Z,55.5
2017-05-16T06:21:51.177Z,54.8
2017-05-16T06:22:53.933Z,55
2017-05-16T06:23:56.783Z,54.7
2017-05-16T06:24:59.632Z,54.6
2017-05-16T06:26:02.783Z,54.2
2017-05-16T06:27:05.630Z,54.7
2017-05-16T06:28:08.343Z,54.2
2017-05-16T06:29:11.190Z,53.3
2017-05-16T06:30:14.399Z,53
2017-05-16T06:31:17.494Z,52.7
2017-05-16T06:32:20.340Z,52.9
2017-05-16T06:33:23.245Z,52.8
2017-05-16T06:34:26.093Z,52.6
2017-05-16T06:35:28.940Z,52.5
2017-05-16T06:36:32.090Z,52.5
2017-05-16T06:37:34.797Z,52.2
2017-05-16T06:38:37.647Z,51.4
2017-05-16T06:39:40.494Z,51.4
2017-05-16T06:40:43.346Z,51
2017-05-16T06:41:46.998Z,50.7
2017-05-16T06:42:49.344Z,50.6
2017-05-16T06:43:52.192Z,50.2
2017-05-16T06:44:55.545Z,51.3
2017-05-16T06:45:58.395Z,50.5
2017-05-16T06:47:01.405Z,51.3
2017-05-16T06:48:04.253Z,51.4
2017-05-16T06:49:06.852Z,51.6
2017-05-16T06:50:10.215Z,51.4
2017-05-16T06:51:12.927Z,51.5
2017-05-16T06:52:16.072Z,51.9
2017-05-16T06:53:18.842Z,52.3
2017-05-16T06:54:22.253Z,52.7
2017-05-16T06:55:24.595Z,53.3
2017-05-16T06:56:27.443Z,52.9
2017-05-16T06:57:30.635Z,52.3
2017-05-16T06:58:33.348Z,52.8
2017-05-16T06:59:36.561Z,53.3
2017-05-16T07:00:39.273Z,51.7
2017-05-16T07:01:41.986Z,51.2
2017-05-16T07:02:45.684Z,50.8
2017-05-16T07:03:48.033Z,50.4
2017-05-16T07:04:51.384Z,50.5
2017-05-16T07:05:54.236Z,49.8
2017-05-16T07:06:57.078Z,50.2
2017-05-16T07:08:00.042Z,50.9
2017-05-16T07:09:02.889Z,51.1
2017-05-16T07:10:05.602Z,50.9
2017-05-16T07:11:08.742Z,51
2017-05-16T07:12:11.587Z,50
2017-05-16T07:13:15.286Z,48.7
2017-05-16T07:15:20.532Z,47.7
2017-05-16T07:16:23.886Z,47.8
2017-05-16T07:17:26.594Z,47.9
2017-05-16T07:18:29.786Z,47.3
2017-05-16T07:19:32.629Z,46.8
2017-05-16T07:20:35.473Z,45.5
2017-05-16T07:21:38.319Z,45.4
2017-05-16T07:22:41.670Z,46.3
2017-05-16T07:23:44.829Z,45.6
2017-05-16T07:24:47.717Z,46.7
2017-05-16T07:25:50.569Z,46.3
2017-05-16T07:26:53.411Z,46.6
2017-05-16T07:27:56.256Z,46.3
2017-05-16T07:28:59.407Z,45.8
2017-05-16T07:30:02.263Z,45.5
2017-05-16T07:32:08.953Z,45.8
2017-05-16T07:33:11.351Z,45.6
2017-05-16T07:34:14.318Z,42.8
2017-05-16T07:35:17.030Z,43.8
2017-05-16T07:36:19.744Z,43.4
2017-05-16T07:37:23.084Z,43.7
2017-05-16T07:38:26.315Z,44.2
2017-05-16T07:39:29.463Z,44.1
2017-05-16T07:40:31.813Z,43.2
2017-05-16T07:41:35.164Z,42.8
2017-05-16T07:42:38.254Z,42.4
2017-05-16T07:43:41.104Z,43
2017-05-16T07:44:44.265Z,42.3
2017-05-16T07:46:50.017Z,40.8
2017-05-16T07:47:52.860Z,39.5
2017-05-16T07:48:55.709Z,38.3
2017-05-16T07:49:59.305Z,39.6
2017-05-16T07:51:02.156Z,38.6
2017-05-16T07:52:04.997Z,40
2017-05-16T07:53:07.843Z,40.5
2017-05-16T07:54:11.057Z,40.8
2017-05-16T07:55:14.026Z,39.6
2017-05-16T07:56:16.731Z,38.8
2017-05-16T07:57:20.079Z,39
2017-05-16T07:58:22.923Z,39.6
2017-05-16T07:59:25.768Z,39.2
2017-05-16T08:00:29.370Z,38.6
2017-05-16T08:01:31.710Z,38.5
2017-05-16T08:02:35.065Z,36.2
2017-05-16T08:03:37.911Z,36.2
2017-05-16T08:04:40.758Z,35.2
2017-05-16T08:05:44.226Z,34.3
2017-05-16T08:06:47.073Z,34.7
2017-05-16T08:08:52.701Z,36.2
2017-05-16T08:09:56.055Z,36.5
2017-05-16T08:10:59.156Z,36.9
2017-05-16T08:12:01.993Z,36.4
2017-05-16T08:13:04.838Z,35.6
2017-05-16T08:14:08.192Z,36.1
2017-05-16T08:15:11.036Z,35.8
2017-05-16T08:16:14.181Z,36.3
2017-05-16T08:17:16.889Z,36.2
2017-05-16T08:18:20.249Z,36.8
2017-05-16T08:19:23.108Z,36.7
2017-05-16T08:20:25.954Z,36.6
2017-05-16T08:21:29.606Z,37.2
2017-05-16T08:22:32.345Z,37
2017-05-16T08:23:35.058Z,38
2017-05-16T08:24:38.406Z,37.8
2017-05-16T08:25:41.254Z,37.1
2017-05-16T08:26:44.218Z,37.1
2017-05-16T08:27:47.609Z,37.6
2017-05-16T08:28:50.317Z,37.3
2017-05-16T08:29:53.161Z,37.6
2017-05-16T08:30:56.502Z,36.8
2017-05-16T08:31:59.653Z,37
2017-05-16T08:33:02.553Z,37.4
2017-05-16T08:34:05.764Z,38.3
2017-05-16T08:35:08.474Z,38
2017-05-16T08:36:11.557Z,38.3
2017-05-16T08:37:15.162Z,38
2017-05-16T08:38:17.498Z,37.4
2017-05-16T08:39:20.709Z,38.1
2017-05-16T08:40:24.059Z,37.9
2017-05-16T08:41:26.906Z,38.5
2017-05-16T08:42:30.566Z,38.2
2017-05-16T08:43:33.480Z,38.3
2017-05-16T08:44:35.823Z,38.8
2017-05-16T08:45:39.172Z,37.9
2017-05-16T08:46:41.883Z,37.7
2017-05-16T08:47:45.529Z,38.3
2017-05-16T08:48:48.376Z,38.3
2017-05-16T08:50:54.130Z,38.1
2017-05-16T08:51:58.028Z,37.9
2017-05-16T08:53:00.674Z,38.2
2017-05-16T08:54:03.395Z,38
2017-05-16T08:55:06.110Z,36.2
2017-05-16T08:56:09.455Z,35.8
2017-05-16T08:57:12.801Z,36.6
2017-05-16T08:58:15.760Z,37.1
2017-05-16T08:59:18.606Z,36.8
2017-05-16T09:00:21.957Z,36.9
2017-05-16T09:01:24.853Z,37.1
2017-05-16T09:02:27.696Z,34.8
2017-05-16T09:03:31.303Z,35.3
2017-05-16T09:04:34.148Z,34.8
2017-05-16T09:05:37.361Z,35.2
2017-05-16T09:06:40.210Z,35.4
2017-05-16T09:08:47.372Z,35.2
2017-05-16T09:09:49.713Z,34.8
2017-05-16T09:10:53.061Z,35.6
2017-05-16T09:11:55.906Z,35.4
2017-05-16T09:12:59.259Z,35.3
2017-05-16T09:14:02.863Z,35.9
2017-05-16T09:15:05.706Z,35.5
2017-05-16T09:16:09.061Z,35.5
2017-05-16T09:17:11.903Z,35.5
2017-05-16T09:18:15.660Z,36.1
2017-05-16T09:19:18.753Z,36.6
2017-05-16T09:20:21.600Z,36.2
2017-05-16T09:21:24.944Z,35.5
2017-05-16T09:22:28.370Z,35.2
2017-05-16T09:23:31.719Z,35.1
2017-05-16T09:24:35.429Z,36.1
2017-05-16T09:25:38.141Z,35.2
2017-05-16T09:26:41.035Z,35.6
2017-05-16T09:27:44.385Z,35.7
2017-05-16T09:28:47.600Z,35.1
2017-05-16T09:29:51.253Z,35.3
2017-05-16T09:30:54.602Z,35.3
2017-05-16T09:31:57.306Z,35.8
2017-05-16T09:33:00.655Z,36.1
2017-05-16T09:34:04.003Z,35.7
2017-05-16T09:35:07.468Z,36.1
2017-05-16T09:36:10.681Z,36.5
2017-05-16T09:37:13.896Z,36.1
2017-05-16T09:38:17.244Z,36.7
2017-05-16T09:39:21.017Z,37
2017-05-16T09:41:27.076Z,37.9
2017-05-16T09:42:30.153Z,37.9
2017-05-16T09:43:33.506Z,37.6
2017-05-16T09:44:36.349Z,37.3
2017-05-16T09:46:43.282Z,37.7
2017-05-16T09:47:45.860Z,37.3
2017-05-16T09:48:49.208Z,37.6
2017-05-16T09:49:52.556Z,37.3
2017-05-16T09:50:55.905Z,37
2017-05-16T09:52:00.583Z,35.9
2017-05-16T09:53:02.653Z,37.1
2017-05-16T09:54:05.863Z,36.3
2017-05-16T09:55:09.074Z,35.6
2017-05-16T09:56:12.422Z,36.5
2017-05-16T09:57:16.072Z,36.9
2017-05-16T09:58:18.919Z,37.3
2017-05-16T09:59:22.269Z,37.3
2017-05-16T10:00:25.621Z,36.9
2017-05-16T10:01:28.970Z,37.4
2017-05-16T10:02:31.933Z,37.5
2017-05-16T10:03:35.280Z,36.8
2017-05-16T10:04:38.628Z,37.4
2017-05-16T10:05:41.475Z,36.8
2017-05-16T10:06:44.825Z,37.2
2017-05-16T10:07:48.427Z,37.6
2017-05-16T10:08:51.279Z,38
2017-05-16T10:09:54.495Z,37.4
2017-05-16T10:10:57.710Z,37.2
2017-05-16T10:12:01.058Z,36.6
2017-05-16T10:13:04.153Z,36.3
2017-05-16T10:14:07.234Z,35
2017-05-16T10:15:10.444Z,35.7
2017-05-16T10:16:13.652Z,35.5
2017-05-16T10:17:16.867Z,35.7
2017-05-16T10:18:19.966Z,34.4
2017-05-16T10:19:22.811Z,34.7
2017-05-16T10:20:26.167Z,35.1
2017-05-16T10:21:29.017Z,34.6
2017-05-16T10:22:32.935Z,34.8
2017-05-16T10:23:35.535Z,34.9
2017-05-16T10:24:38.378Z,35.9
2017-05-16T10:25:41.725Z,36.3
2017-05-16T10:26:44.570Z,36.5
2017-05-16T10:27:47.975Z,36.7
2017-05-16T10:28:50.936Z,35.3
2017-05-16T10:29:53.783Z,36.4
2017-05-16T10:30:56.998Z,37
2017-05-16T10:31:59.840Z,37.3
2017-05-16T10:33:03.189Z,37.9
2017-05-16T10:34:06.336Z,38.4
2017-05-16T10:35:09.048Z,38.7
2017-05-16T10:36:12.266Z,38.2
2017-05-16T10:37:15.108Z,38.1
2017-05-16T10:38:18.458Z,38.5
2017-05-16T10:39:21.611Z,39.3
2017-05-16T10:40:24.327Z,39
2017-05-16T10:41:27.546Z,39.9
2017-05-16T10:42:30.256Z,40.6
2017-05-16T10:43:33.604Z,38.7
2017-05-16T10:44:37.173Z,39.1
2017-05-16T10:45:40.082Z,39.1
2017-05-16T10:46:43.337Z,38.6
2017-05-16T10:47:45.681Z,38.1
2017-05-16T10:48:48.524Z,39
2017-05-16T10:49:52.130Z,39.5
2017-05-16T10:50:54.584Z,39.3
2017-05-16T10:51:57.927Z,38.9
2017-05-16T10:53:00.773Z,39.4
2017-05-16T10:54:03.678Z,40.1
2017-05-16T10:55:07.327Z,40.6
2017-05-16T10:56:10.038Z,40.2
2017-05-16T10:57:12.755Z,39.7
2017-05-16T10:58:16.114Z,40.6
2017-05-16T10:59:18.955Z,38.9
2017-05-16T11:00:22.470Z,38.7
2017-05-16T11:01:25.046Z,38.3
2017-05-16T11:02:27.889Z,38.7
2017-05-16T11:03:31.237Z,39.6
2017-05-16T11:04:34.081Z,39.7
2017-05-16T11:05:37.149Z,40.3
2017-05-16T11:06:39.994Z,40.3
2017-05-16T11:07:43.208Z,40.2
2017-05-16T11:08:46.050Z,38.8
2017-05-16T11:09:49.399Z,38.4
2017-05-16T11:10:52.273Z,39.3
2017-05-16T11:11:55.114Z,39.4
2017-05-16T11:12:58.468Z,39.8
2017-05-16T11:14:01.244Z,39.2
2017-05-16T11:15:04.087Z,38.3
2017-05-16T11:16:07.250Z,37.6
2017-05-16T11:17:10.459Z,37.9
2017-05-16T11:18:13.304Z,37.6
2017-05-16T11:19:16.150Z,37.3
2017-05-16T11:20:19.497Z,36
2017-05-16T11:21:22.699Z,35.1
2017-05-16T11:22:25.095Z,36.1
2017-05-16T11:23:28.442Z,37.2
2017-05-16T11:24:31.290Z,37.3
2017-05-16T11:25:34.133Z,37.5
2017-05-16T11:26:37.833Z,37.5
2017-05-16T11:27:40.173Z,37.2
2017-05-16T11:28:43.434Z,35.9
2017-05-16T11:29:46.143Z,36
2017-05-16T11:30:49.611Z,36.1
2017-05-16T11:31:52.757Z,36.7
2017-05-16T11:32:55.600Z,36.9
2017-05-16T11:33:58.450Z,35.7
2017-05-16T11:35:01.299Z,36.5
2017-05-16T11:36:04.651Z,37.4
2017-05-16T11:37:07.869Z,37
2017-05-16T11:39:13.356Z,36.7
2017-05-16T11:40:16.203Z,36.9
2017-05-16T11:41:19.555Z,37.3
2017-05-16T11:42:22.703Z,37
2017-05-16T11:43:25.457Z,36.4
2017-05-16T11:44:28.300Z,34.5
2017-05-16T11:45:31.645Z,34.8
2017-05-16T11:46:34.356Z,36.7
2017-05-16T11:47:38.004Z,35.4
2017-05-16T11:48:40.356Z,35.3
2017-05-16T11:49:43.706Z,36
2017-05-16T11:51:49.341Z,36.7
2017-05-16T11:52:52.992Z,37.1
2017-05-16T11:53:55.337Z,37
2017-05-16T11:54:58.257Z,37.2
2017-05-16T11:56:01.623Z,37.6
2017-05-16T11:57:04.471Z,37.5
2017-05-16T11:58:07.622Z,38
2017-05-16T11:59:10.337Z,38
2017-05-16T12:00:13.694Z,37.3
2017-05-16T12:01:16.534Z,36.4
2017-05-16T12:02:19.378Z,35.7
2017-05-16T12:03:22.843Z,35.6
2017-05-16T12:04:25.690Z,35.4
2017-05-16T12:05:28.273Z,36
2017-05-16T12:06:31.622Z,34.4
2017-05-16T12:08:37.689Z,34.7
2017-05-16T12:09:40.400Z,35.6
2017-05-16T12:10:43.750Z,35.7
2017-05-16T12:11:46.596Z,34.7
2017-05-16T12:12:49.441Z,34.4
2017-05-16T12:13:53.050Z,35.6
2017-05-16T12:14:55.392Z,36.8
2017-05-16T12:17:01.646Z,35.8
2017-05-16T12:18:04.496Z,35.2
2017-05-16T12:19:08.573Z,33.2
2017-05-16T12:20:10.414Z,34.1
2017-05-16T12:21:13.762Z,35.5
2017-05-16T12:22:16.609Z,35.3
2017-05-16T12:23:19.454Z,34.3
2017-05-16T12:24:23.102Z,33.3
2017-05-16T12:25:26.005Z,33.4
2017-05-16T12:26:28.346Z,34.3
2017-05-16T12:27:31.740Z,34.3
2017-05-16T12:28:34.448Z,33.9
2017-05-16T12:29:38.112Z,33.9
2017-05-16T12:30:40.454Z,35.1
2017-05-16T12:31:43.668Z,35.1
2017-05-16T12:32:46.512Z,34.4
2017-05-16T12:33:49.353Z,34.6
2017-05-16T12:34:52.863Z,35.3
2017-05-16T12:35:55.704Z,34.8
2017-05-16T12:36:58.549Z,33.7
2017-05-16T12:38:01.764Z,33
2017-05-16T12:39:05.169Z,32.9
2017-05-16T12:40:07.764Z,32.7
2017-05-16T12:41:10.475Z,33.7
2017-05-16T12:42:13.319Z,33.9
2017-05-16T12:43:16.669Z,32.9
2017-05-16T12:44:19.510Z,33.1
2017-05-16T12:45:22.605Z,33.3
2017-05-16T12:46:25.314Z,34.3
2017-05-16T12:47:28.701Z,34
2017-05-16T12:48:31.547Z,33.9
2017-05-16T12:49:34.394Z,33.7
2017-05-16T12:50:37.906Z,32.2
2017-05-16T12:51:40.616Z,30.2
2017-05-16T12:52:43.457Z,30.5
2017-05-16T12:53:46.360Z,30.9
2017-05-16T12:54:49.713Z,30.2
2017-05-16T12:55:52.811Z,29.4
2017-05-16T12:56:55.654Z,27.6
2017-05-16T12:57:58.500Z,26.3
2017-05-16T12:59:01.712Z,26.1
2017-05-16T13:00:04.554Z,26.4
2017-05-16T13:01:07.653Z,26.3
2017-05-16T13:02:10.366Z,27.2
2017-05-16T13:03:13.724Z,41.6
2017-05-16T13:04:16.569Z,32.5
2017-05-16T13:05:19.418Z,31
2017-05-16T13:06:23.063Z,30.8
2017-05-16T13:07:25.409Z,31.1
2017-05-16T13:08:28.621Z,30.8
2017-05-16T13:09:31.470Z,31.6
2017-05-16T13:10:34.821Z,32.5
2017-05-16T13:11:37.970Z,33.1
2017-05-16T13:12:40.679Z,33.2
2017-05-16T13:13:43.529Z,32.2
2017-05-16T13:14:46.741Z,31.6
2017-05-16T13:15:49.586Z,30.1
2017-05-16T13:16:53.187Z,30.2
2017-05-16T13:17:55.536Z,30
2017-05-16T13:18:58.884Z,31.1
2017-05-16T13:20:01.729Z,31.1
2017-05-16T13:21:04.572Z,31.4
2017-05-16T13:22:08.091Z,31.8
2017-05-16T13:23:10.665Z,31.2
2017-05-16T13:24:14.011Z,31.8
2017-05-16T13:25:16.855Z,30.8
2017-05-16T13:26:19.699Z,31.5
2017-05-16T13:27:23.290Z,31.8
2017-05-16T13:28:25.631Z,31.5
2017-05-16T13:29:28.976Z,31.3
2017-05-16T13:30:31.820Z,29.7
2017-05-16T13:31:35.038Z,29.8
2017-05-16T13:32:38.136Z,28.6
2017-05-16T13:33:40.985Z,29.4
2017-05-16T13:34:43.833Z,30.3
2017-05-16T13:35:46.543Z,31.4
2017-05-16T13:36:49.757Z,31.2
2017-05-16T13:37:53.221Z,31.5
2017-05-16T13:39:58.977Z,32.6
2017-05-16T13:41:01.824Z,32.2
2017-05-16T13:42:05.174Z,32.4
2017-05-16T13:43:08.264Z,31.3
2017-05-16T13:44:10.976Z,31.5
2017-05-16T13:45:13.825Z,31.8
2017-05-16T13:46:17.173Z,30.8
2017-05-16T13:47:20.017Z,31.2
2017-05-16T13:48:23.216Z,31.9
2017-05-16T13:49:26.054Z,33
2017-05-16T13:50:28.903Z,34.4
2017-05-16T13:51:32.257Z,34
2017-05-16T13:52:35.101Z,33.4
2017-05-16T13:53:38.257Z,32.9
2017-05-16T13:54:41.099Z,31.7
2017-05-16T13:55:43.940Z,31.3
2017-05-16T13:56:47.289Z,31.5
2017-05-16T13:57:50.132Z,31.4
2017-05-16T13:58:53.101Z,31.9
2017-05-16T13:59:55.948Z,31.7
2017-05-16T14:00:59.344Z,31.6
2017-05-16T14:02:02.194Z,31.5
2017-05-16T14:03:05.043Z,31.4
2017-05-16T14:04:08.656Z,30.2
2017-05-16T14:05:11.372Z,30
2017-05-16T14:06:14.080Z,29.5
2017-05-16T14:07:17.425Z,28.6
2017-05-16T14:08:20.268Z,28.2
2017-05-16T14:09:23.362Z,26.9
2017-05-16T14:10:26.203Z,27.5
2017-05-16T14:11:29.049Z,28.4
2017-05-16T14:12:32.261Z,24.6
2017-05-16T14:13:35.102Z,26.6
2017-05-16T14:14:38.754Z,26.7
2017-05-16T14:15:41.095Z,26.8
2017-05-16T14:16:44.447Z,27.8
2017-05-16T14:17:47.160Z,27.4
2017-05-16T14:18:50.005Z,26.5
2017-05-16T14:21:59.430Z,27.2
2017-05-16T14:23:02.278Z,27.6
2017-05-16T14:24:05.123Z,28.1
2017-05-16T14:25:07.966Z,27.9
2017-05-16T14:26:11.316Z,28.2
2017-05-16T14:27:14.461Z,27.7
2017-05-16T14:28:17.304Z,28
2017-05-16T14:29:20.146Z,30.1